sensor_id;sensor_type;location;lat;lon;timestamp;temperature;humidity
75457;SHT31;64036;48.266;14.192;2023-07-31T00:01:18;17.65;71.20
75457;SHT31;64036;48.266;14.192;2023-07-31T00:03:45;17.64;71.10
75457;SHT31;64036;48.266;14.192;2023-07-31T00:06:12;17.62;71.05
75457;SHT31;64036;48.266;14.192;2023-07-31T00:08:37;17.61;70.99
75457;SHT31;64036;48.266;14.192;2023-07-31T00:11:03;17.59;71.00
75457;SHT31;64036;48.266;14.192;2023-07-31T00:13:29;17.57;71.06
75457;SHT31;64036;48.266;14.192;2023-07-31T00:15:54;17.55;71.04
75457;SHT31;64036;48.266;14.192;2023-07-31T00:18:20;17.55;70.99
75457;SHT31;64036;48.266;14.192;2023-07-31T00:20:46;17.55;70.92
75457;SHT31;64036;48.266;14.192;2023-07-31T00:23:12;17.56;70.87
75457;SHT31;64036;48.266;14.192;2023-07-31T00:25:38;17.58;70.76
75457;SHT31;64036;48.266;14.192;2023-07-31T00:28:04;17.56;70.80
75457;SHT31;64036;48.266;14.192;2023-07-31T00:30:29;17.56;70.81
75457;SHT31;64036;48.266;14.192;2023-07-31T00:32:55;17.57;70.65
75457;SHT31;64036;48.266;14.192;2023-07-31T00:35:21;17.59;70.49
75457;SHT31;64036;48.266;14.192;2023-07-31T00:37:46;17.62;70.41
75457;SHT31;64036;48.266;14.192;2023-07-31T00:40:12;17.66;70.32
75457;SHT31;64036;48.266;14.192;2023-07-31T00:42:39;17.68;70.42
75457;SHT31;64036;48.266;14.192;2023-07-31T00:45:04;17.68;70.46
75457;SHT31;64036;48.266;14.192;2023-07-31T00:47:31;17.69;70.48
75457;SHT31;64036;48.266;14.192;2023-07-31T00:49:57;17.66;70.58
75457;SHT31;64036;48.266;14.192;2023-07-31T00:52:22;17.64;70.63
75457;SHT31;64036;48.266;14.192;2023-07-31T00:54:48;17.66;70.44
75457;SHT31;64036;48.266;14.192;2023-07-31T00:57:15;17.68;70.22
75457;SHT31;64036;48.266;14.192;2023-07-31T00:59:40;17.68;70.09
75457;SHT31;64036;48.266;14.192;2023-07-31T01:02:06;17.68;70.03
75457;SHT31;64036;48.266;14.192;2023-07-31T01:04:32;17.66;70.10
75457;SHT31;64036;48.266;14.192;2023-07-31T01:09:49;17.63;69.97
75457;SHT31;64036;48.266;14.192;2023-07-31T01:12:28;17.62;70.01
75457;SHT31;64036;48.266;14.192;2023-07-31T01:17:36;17.55;70.17
75457;SHT31;64036;48.266;14.192;2023-07-31T01:20:12;17.49;70.37
75457;SHT31;64036;48.266;14.192;2023-07-31T01:28:27;17.37;70.63
75457;SHT31;64036;48.266;14.192;2023-07-31T01:31:00;17.32;70.78
75457;SHT31;64036;48.266;14.192;2023-07-31T01:33:26;17.27;70.87
75457;SHT31;64036;48.266;14.192;2023-07-31T01:35:53;17.21;70.95
75457;SHT31;64036;48.266;14.192;2023-07-31T01:38:22;17.16;71.00
75457;SHT31;64036;48.266;14.192;2023-07-31T01:40:52;17.11;71.02
75457;SHT31;64036;48.266;14.192;2023-07-31T01:43:18;17.05;71.09
75457;SHT31;64036;48.266;14.192;2023-07-31T01:45:44;17.03;71.13
75457;SHT31;64036;48.266;14.192;2023-07-31T01:48:10;17.00;71.10
75457;SHT31;64036;48.266;14.192;2023-07-31T01:50:36;16.99;71.11
75457;SHT31;64036;48.266;14.192;2023-07-31T01:53:01;16.95;71.11
75457;SHT31;64036;48.266;14.192;2023-07-31T01:55:27;16.94;71.06
75457;SHT31;64036;48.266;14.192;2023-07-31T01:57:53;16.90;71.20
75457;SHT31;64036;48.266;14.192;2023-07-31T02:00:18;16.88;71.28
75457;SHT31;64036;48.266;14.192;2023-07-31T02:02:44;16.84;71.24
75457;SHT31;64036;48.266;14.192;2023-07-31T02:05:10;16.75;71.39
75457;SHT31;64036;48.266;14.192;2023-07-31T02:07:35;16.70;71.49
75457;SHT31;64036;48.266;14.192;2023-07-31T02:10:01;16.70;71.35
75457;SHT31;64036;48.266;14.192;2023-07-31T02:12:27;16.71;71.30
75457;SHT31;64036;48.266;14.192;2023-07-31T02:14:56;16.72;71.26
75457;SHT31;64036;48.266;14.192;2023-07-31T02:17:21;16.71;71.34
75457;SHT31;64036;48.266;14.192;2023-07-31T02:19:47;16.67;71.49
75457;SHT31;64036;48.266;14.192;2023-07-31T02:22:13;16.60;71.60
75457;SHT31;64036;48.266;14.192;2023-07-31T02:24:39;16.53;71.86
75457;SHT31;64036;48.266;14.192;2023-07-31T02:27:05;16.47;72.07
75457;SHT31;64036;48.266;14.192;2023-07-31T02:29:31;16.43;72.21
75457;SHT31;64036;48.266;14.192;2023-07-31T02:31:56;16.37;72.35
75457;SHT31;64036;48.266;14.192;2023-07-31T02:34:22;16.34;72.49
75457;SHT31;64036;48.266;14.192;2023-07-31T02:36:48;16.30;72.51
75457;SHT31;64036;48.266;14.192;2023-07-31T02:39:13;16.28;72.57
75457;SHT31;64036;48.266;14.192;2023-07-31T02:41:39;16.24;72.58
75457;SHT31;64036;48.266;14.192;2023-07-31T02:44:05;16.15;72.71
75457;SHT31;64036;48.266;14.192;2023-07-31T02:46:30;16.08;72.80
75457;SHT31;64036;48.266;14.192;2023-07-31T02:48:56;16.04;72.95
75457;SHT31;64036;48.266;14.192;2023-07-31T02:51:23;15.94;73.12
75457;SHT31;64036;48.266;14.192;2023-07-31T02:53:48;15.83;73.39
75457;SHT31;64036;48.266;14.192;2023-07-31T02:56:14;15.73;73.65
75457;SHT31;64036;48.266;14.192;2023-07-31T02:58:40;15.66;74.02
75457;SHT31;64036;48.266;14.192;2023-07-31T03:01:06;15.64;74.24
75457;SHT31;64036;48.266;14.192;2023-07-31T03:03:32;15.64;74.34
75457;SHT31;64036;48.266;14.192;2023-07-31T03:05:57;15.66;74.38
75457;SHT31;64036;48.266;14.192;2023-07-31T03:08:23;15.67;74.30
75457;SHT31;64036;48.266;14.192;2023-07-31T03:10:49;15.65;74.30
75457;SHT31;64036;48.266;14.192;2023-07-31T03:13:14;15.64;74.24
75457;SHT31;64036;48.266;14.192;2023-07-31T03:15:43;15.62;74.18
75457;SHT31;64036;48.266;14.192;2023-07-31T03:18:09;15.59;74.20
75457;SHT31;64036;48.266;14.192;2023-07-31T03:20:35;15.54;74.20
75457;SHT31;64036;48.266;14.192;2023-07-31T03:23:00;15.51;74.19
75457;SHT31;64036;48.266;14.192;2023-07-31T03:25:26;15.51;74.11
75457;SHT31;64036;48.266;14.192;2023-07-31T03:27:51;15.52;74.00
75457;SHT31;64036;48.266;14.192;2023-07-31T03:30:17;15.50;73.96
75457;SHT31;64036;48.266;14.192;2023-07-31T03:32:43;15.49;73.93
75457;SHT31;64036;48.266;14.192;2023-07-31T03:35:08;15.50;73.82
75457;SHT31;64036;48.266;14.192;2023-07-31T03:37:34;15.51;73.77
75457;SHT31;64036;48.266;14.192;2023-07-31T03:40:00;15.49;73.73
75457;SHT31;64036;48.266;14.192;2023-07-31T03:42:26;15.47;73.83
75457;SHT31;64036;48.266;14.192;2023-07-31T03:44:51;15.48;73.80
75457;SHT31;64036;48.266;14.192;2023-07-31T03:47:17;15.49;73.79
75457;SHT31;64036;48.266;14.192;2023-07-31T03:49:43;15.52;73.71
75457;SHT31;64036;48.266;14.192;2023-07-31T03:52:08;15.54;73.61
75457;SHT31;64036;48.266;14.192;2023-07-31T03:54:34;15.58;73.54
75457;SHT31;64036;48.266;14.192;2023-07-31T03:57:00;15.59;73.50
75457;SHT31;64036;48.266;14.192;2023-07-31T03:59:25;15.57;73.57
75457;SHT31;64036;48.266;14.192;2023-07-31T04:01:51;15.56;73.60
75457;SHT31;64036;48.266;14.192;2023-07-31T04:04:17;15.56;73.61
75457;SHT31;64036;48.266;14.192;2023-07-31T04:06:42;15.59;73.61
75457;SHT31;64036;48.266;14.192;2023-07-31T04:09:08;15.62;73.57
75457;SHT31;64036;48.266;14.192;2023-07-31T04:11:34;15.65;73.57
75457;SHT31;64036;48.266;14.192;2023-07-31T04:13:59;15.67;73.53
75457;SHT31;64036;48.266;14.192;2023-07-31T04:16:25;15.72;73.46
75457;SHT31;64036;48.266;14.192;2023-07-31T04:18:51;15.77;73.34
75457;SHT31;64036;48.266;14.192;2023-07-31T04:21:17;15.81;73.30
75457;SHT31;64036;48.266;14.192;2023-07-31T04:23:42;15.86;73.24
75457;SHT31;64036;48.266;14.192;2023-07-31T04:26:08;16.00;73.09
75457;SHT31;64036;48.266;14.192;2023-07-31T04:28:34;16.16;72.87
75457;SHT31;64036;48.266;14.192;2023-07-31T04:30:59;16.67;72.41
75457;SHT31;64036;48.266;14.192;2023-07-31T04:33:25;17.13;71.99
75457;SHT31;64036;48.266;14.192;2023-07-31T04:35:51;17.18;71.73
75457;SHT31;64036;48.266;14.192;2023-07-31T04:38:21;17.16;71.51
75457;SHT31;64036;48.266;14.192;2023-07-31T04:40:47;17.15;71.43
75457;SHT31;64036;48.266;14.192;2023-07-31T04:43:12;17.13;71.28
75457;SHT31;64036;48.266;14.192;2023-07-31T04:45:38;17.10;71.03
75457;SHT31;64036;48.266;14.192;2023-07-31T04:48:04;17.08;70.82
75457;SHT31;64036;48.266;14.192;2023-07-31T04:50:30;17.07;70.68
75457;SHT31;64036;48.266;14.192;2023-07-31T04:52:56;17.06;70.61
75457;SHT31;64036;48.266;14.192;2023-07-31T04:55:22;16.99;70.80
75457;SHT31;64036;48.266;14.192;2023-07-31T04:57:47;17.00;70.98
75457;SHT31;64036;48.266;14.192;2023-07-31T05:00:13;17.04;70.94
75457;SHT31;64036;48.266;14.192;2023-07-31T05:02:39;17.02;71.07
75457;SHT31;64036;48.266;14.192;2023-07-31T05:05:04;17.51;70.86
75457;SHT31;64036;48.266;14.192;2023-07-31T05:07:30;18.56;69.84
75457;SHT31;64036;48.266;14.192;2023-07-31T05:09:56;19.52;68.36
75457;SHT31;64036;48.266;14.192;2023-07-31T05:12:22;20.44;67.26
75457;SHT31;64036;48.266;14.192;2023-07-31T05:14:47;21.47;65.91
75457;SHT31;64036;48.266;14.192;2023-07-31T05:17:13;22.40;63.79
75457;SHT31;64036;48.266;14.192;2023-07-31T05:19:39;23.28;62.46
75457;SHT31;64036;48.266;14.192;2023-07-31T05:22:05;24.11;61.03
75457;SHT31;64036;48.266;14.192;2023-07-31T05:24:31;24.96;59.14
75457;SHT31;64036;48.266;14.192;2023-07-31T05:26:56;25.66;57.41
75457;SHT31;64036;48.266;14.192;2023-07-31T05:29:22;26.31;55.93
75457;SHT31;64036;48.266;14.192;2023-07-31T05:31:48;27.01;54.31
75457;SHT31;64036;48.266;14.192;2023-07-31T05:34:13;27.46;52.73
75457;SHT31;64036;48.266;14.192;2023-07-31T05:36:39;27.76;51.93
75457;SHT31;64036;48.266;14.192;2023-07-31T05:39:05;28.30;50.86
75457;SHT31;64036;48.266;14.192;2023-07-31T05:41:33;28.55;49.92
75457;SHT31;64036;48.266;14.192;2023-07-31T05:44:00;28.99;48.63
75457;SHT31;64036;48.266;14.192;2023-07-31T05:46:26;29.46;47.66
75457;SHT31;64036;48.266;14.192;2023-07-31T05:48:52;30.00;46.59
75457;SHT31;64036;48.266;14.192;2023-07-31T05:51:17;30.68;45.45
75457;SHT31;64036;48.266;14.192;2023-07-31T05:53:43;31.17;43.97
75457;SHT31;64036;48.266;14.192;2023-07-31T05:56:08;31.58;42.49
75457;SHT31;64036;48.266;14.192;2023-07-31T05:58:34;32.02;41.60
75457;SHT31;64036;48.266;14.192;2023-07-31T06:01:00;32.52;40.99
75457;SHT31;64036;48.266;14.192;2023-07-31T06:03:26;32.94;39.99
75457;SHT31;64036;48.266;14.192;2023-07-31T06:05:51;33.43;39.32
75457;SHT31;64036;48.266;14.192;2023-07-31T06:08:17;33.77;37.93
75457;SHT31;64036;48.266;14.192;2023-07-31T06:10:42;33.95;37.01
75457;SHT31;64036;48.266;14.192;2023-07-31T06:13:08;34.06;35.98
75457;SHT31;64036;48.266;14.192;2023-07-31T06:15:34;34.29;35.50
75457;SHT31;64036;48.266;14.192;2023-07-31T06:17:59;34.71;35.54
75457;SHT31;64036;48.266;14.192;2023-07-31T06:20:27;35.28;34.91
75457;SHT31;64036;48.266;14.192;2023-07-31T06:22:53;35.84;33.99
75457;SHT31;64036;48.266;14.192;2023-07-31T06:25:19;36.26;33.47
75457;SHT31;64036;48.266;14.192;2023-07-31T06:27:44;36.73;33.33
75457;SHT31;64036;48.266;14.192;2023-07-31T06:30:10;37.19;32.54
75457;SHT31;64036;48.266;14.192;2023-07-31T06:32:36;37.63;31.60
75457;SHT31;64036;48.266;14.192;2023-07-31T06:35:02;37.97;31.29
75457;SHT31;64036;48.266;14.192;2023-07-31T06:37:28;38.45;30.93
75457;SHT31;64036;48.266;14.192;2023-07-31T06:39:54;38.87;30.61
75457;SHT31;64036;48.266;14.192;2023-07-31T06:42:20;39.20;29.83
75457;SHT31;64036;48.266;14.192;2023-07-31T06:44:46;39.53;30.10
75457;SHT31;64036;48.266;14.192;2023-07-31T06:47:12;39.93;29.10
75457;SHT31;64036;48.266;14.192;2023-07-31T06:49:37;40.17;28.77
75457;SHT31;64036;48.266;14.192;2023-07-31T06:52:03;40.54;28.69
75457;SHT31;64036;48.266;14.192;2023-07-31T06:54:29;40.97;27.76
75457;SHT31;64036;48.266;14.192;2023-07-31T06:56:55;41.17;27.47
75457;SHT31;64036;48.266;14.192;2023-07-31T06:59:20;41.39;27.14
75457;SHT31;64036;48.266;14.192;2023-07-31T07:01:46;41.38;27.22
75457;SHT31;64036;48.266;14.192;2023-07-31T07:04:12;41.57;27.02
75457;SHT31;64036;48.266;14.192;2023-07-31T07:06:38;41.83;26.66
75457;SHT31;64036;48.266;14.192;2023-07-31T07:09:04;41.90;26.60
75457;SHT31;64036;48.266;14.192;2023-07-31T07:11:30;42.09;25.99
75457;SHT31;64036;48.266;14.192;2023-07-31T07:13:56;42.21;25.53
75457;SHT31;64036;48.266;14.192;2023-07-31T07:16:22;41.45;25.76
75457;SHT31;64036;48.266;14.192;2023-07-31T07:18:48;40.40;26.99
75457;SHT31;64036;48.266;14.192;2023-07-31T07:21:13;40.04;27.31
75457;SHT31;64036;48.266;14.192;2023-07-31T07:23:42;39.98;27.37
75457;SHT31;64036;48.266;14.192;2023-07-31T07:26:08;39.51;27.41
75457;SHT31;64036;48.266;14.192;2023-07-31T07:28:33;39.18;27.71
75457;SHT31;64036;48.266;14.192;2023-07-31T07:30:59;38.91;27.82
75457;SHT31;64036;48.266;14.192;2023-07-31T07:33:25;38.85;28.27
75457;SHT31;64036;48.266;14.192;2023-07-31T07:35:51;39.15;28.63
75457;SHT31;64036;48.266;14.192;2023-07-31T07:38:16;38.87;28.25
75457;SHT31;64036;48.266;14.192;2023-07-31T07:40:44;38.41;29.13
75457;SHT31;64036;48.266;14.192;2023-07-31T07:43:11;38.21;29.76
75457;SHT31;64036;48.266;14.192;2023-07-31T07:45:37;37.67;29.79
75457;SHT31;64036;48.266;14.192;2023-07-31T07:48:03;36.94;30.68
75457;SHT31;64036;48.266;14.192;2023-07-31T07:50:29;36.20;31.28
75457;SHT31;64036;48.266;14.192;2023-07-31T07:52:55;35.59;32.07
75457;SHT31;64036;48.266;14.192;2023-07-31T07:55:20;34.90;32.78
75457;SHT31;64036;48.266;14.192;2023-07-31T07:57:46;34.25;33.40
75457;SHT31;64036;48.266;14.192;2023-07-31T08:00:12;33.57;33.96
75457;SHT31;64036;48.266;14.192;2023-07-31T08:02:38;33.09;35.58
75457;SHT31;64036;48.266;14.192;2023-07-31T08:05:04;32.65;35.65
75457;SHT31;64036;48.266;14.192;2023-07-31T08:07:30;32.10;35.67
75457;SHT31;64036;48.266;14.192;2023-07-31T08:09:56;31.65;36.47
75457;SHT31;64036;48.266;14.192;2023-07-31T08:12:21;31.31;37.29
75457;SHT31;64036;48.266;14.192;2023-07-31T08:14:47;31.07;37.65
75457;SHT31;64036;48.266;14.192;2023-07-31T08:17:12;30.85;37.66
75457;SHT31;64036;48.266;14.192;2023-07-31T08:19:38;30.56;38.42
75457;SHT31;64036;48.266;14.192;2023-07-31T08:22:04;30.38;37.98
75457;SHT31;64036;48.266;14.192;2023-07-31T08:24:29;30.26;38.80
75457;SHT31;64036;48.266;14.192;2023-07-31T08:26:55;30.15;38.87
75457;SHT31;64036;48.266;14.192;2023-07-31T08:29:21;30.10;38.85
75457;SHT31;64036;48.266;14.192;2023-07-31T08:31:46;30.23;39.43
75457;SHT31;64036;48.266;14.192;2023-07-31T08:34:12;30.44;39.20
75457;SHT31;64036;48.266;14.192;2023-07-31T08:36:38;30.43;38.86
75457;SHT31;64036;48.266;14.192;2023-07-31T08:39:03;30.21;39.25
75457;SHT31;64036;48.266;14.192;2023-07-31T08:41:29;30.17;39.84
75457;SHT31;64036;48.266;14.192;2023-07-31T08:43:55;30.04;39.63
75457;SHT31;64036;48.266;14.192;2023-07-31T08:46:22;30.00;40.22
75457;SHT31;64036;48.266;14.192;2023-07-31T08:48:49;29.88;39.81
75457;SHT31;64036;48.266;14.192;2023-07-31T08:51:16;29.49;40.43
75457;SHT31;64036;48.266;14.192;2023-07-31T08:53:42;29.49;40.56
75457;SHT31;64036;48.266;14.192;2023-07-31T08:56:08;29.43;40.32
75457;SHT31;64036;48.266;14.192;2023-07-31T08:58:35;29.50;39.73
75457;SHT31;64036;48.266;14.192;2023-07-31T09:01:03;29.57;39.96
75457;SHT31;64036;48.266;14.192;2023-07-31T09:03:32;29.75;40.69
75457;SHT31;64036;48.266;14.192;2023-07-31T09:06:02;29.83;40.72
75457;SHT31;64036;48.266;14.192;2023-07-31T09:08:31;29.85;40.37
75457;SHT31;64036;48.266;14.192;2023-07-31T09:11:01;29.56;40.28
75457;SHT31;64036;48.266;14.192;2023-07-31T09:13:30;29.22;40.75
75457;SHT31;64036;48.266;14.192;2023-07-31T09:15:57;28.94;41.81
75457;SHT31;64036;48.266;14.192;2023-07-31T09:18:23;28.54;40.99
75457;SHT31;64036;48.266;14.192;2023-07-31T09:21:04;28.16;41.86
75457;SHT31;64036;48.266;14.192;2023-07-31T09:23:44;27.88;43.32
75457;SHT31;64036;48.266;14.192;2023-07-31T09:26:46;28.05;43.55
75457;SHT31;64036;48.266;14.192;2023-07-31T09:29:05;28.41;43.28
75457;SHT31;64036;48.266;14.192;2023-07-31T09:31:41;28.74;42.57
75457;SHT31;64036;48.266;14.192;2023-07-31T09:34:08;29.08;42.25
75457;SHT31;64036;48.266;14.192;2023-07-31T09:36:39;29.44;42.06
75457;SHT31;64036;48.266;14.192;2023-07-31T09:39:10;29.79;41.70
75457;SHT31;64036;48.266;14.192;2023-07-31T09:41:38;29.99;41.28
75457;SHT31;64036;48.266;14.192;2023-07-31T09:44:06;30.23;41.66
75457;SHT31;64036;48.266;14.192;2023-07-31T09:46:34;30.71;40.98
75457;SHT31;64036;48.266;14.192;2023-07-31T09:49:13;31.14;40.49
75457;SHT31;64036;48.266;14.192;2023-07-31T09:51:41;31.57;39.22
75457;SHT31;64036;48.266;14.192;2023-07-31T09:54:14;31.85;38.60
75457;SHT31;64036;48.266;14.192;2023-07-31T09:56:42;32.15;37.46
75457;SHT31;64036;48.266;14.192;2023-07-31T09:59:10;32.43;37.81
75457;SHT31;64036;48.266;14.192;2023-07-31T10:01:39;32.84;36.89
75457;SHT31;64036;48.266;14.192;2023-07-31T10:04:07;33.38;35.82
75457;SHT31;64036;48.266;14.192;2023-07-31T10:06:36;33.71;35.42
75457;SHT31;64036;48.266;14.192;2023-07-31T10:09:07;34.03;35.35
75457;SHT31;64036;48.266;14.192;2023-07-31T10:11:41;34.23;34.53
75457;SHT31;64036;48.266;14.192;2023-07-31T10:14:15;34.22;34.51
75457;SHT31;64036;48.266;14.192;2023-07-31T10:16:45;34.34;35.50
75457;SHT31;64036;48.266;14.192;2023-07-31T10:19:11;34.49;34.55
75457;SHT31;64036;48.266;14.192;2023-07-31T10:21:37;34.50;33.30
75457;SHT31;64036;48.266;14.192;2023-07-31T10:24:06;34.30;34.19
75457;SHT31;64036;48.266;14.192;2023-07-31T10:26:32;34.18;34.05
75457;SHT31;64036;48.266;14.192;2023-07-31T10:28:59;34.05;34.26
75457;SHT31;64036;48.266;14.192;2023-07-31T10:31:25;33.58;33.69
75457;SHT31;64036;48.266;14.192;2023-07-31T10:33:53;33.05;33.57
75457;SHT31;64036;48.266;14.192;2023-07-31T10:36:24;32.83;35.09
75457;SHT31;64036;48.266;14.192;2023-07-31T10:38:50;32.86;35.83
75457;SHT31;64036;48.266;14.192;2023-07-31T10:41:16;32.81;35.47
75457;SHT31;64036;48.266;14.192;2023-07-31T10:43:42;32.83;36.07
75457;SHT31;64036;48.266;14.192;2023-07-31T10:46:08;33.15;36.39
75457;SHT31;64036;48.266;14.192;2023-07-31T10:48:38;33.59;35.73
75457;SHT31;64036;48.266;14.192;2023-07-31T10:51:12;33.72;34.82
75457;SHT31;64036;48.266;14.192;2023-07-31T10:53:38;33.37;34.45
75457;SHT31;64036;48.266;14.192;2023-07-31T10:56:06;32.85;34.23
75457;SHT31;64036;48.266;14.192;2023-07-31T10:58:34;32.61;35.17
75457;SHT31;64036;48.266;14.192;2023-07-31T11:01:02;32.60;36.16
75457;SHT31;64036;48.266;14.192;2023-07-31T11:03:42;32.64;35.76
75457;SHT31;64036;48.266;14.192;2023-07-31T11:06:17;32.64;35.66
75457;SHT31;64036;48.266;14.192;2023-07-31T11:08:50;32.69;35.69
75457;SHT31;64036;48.266;14.192;2023-07-31T11:11:17;32.60;35.53
75457;SHT31;64036;48.266;14.192;2023-07-31T11:16:21;32.62;36.29
75457;SHT31;64036;48.266;14.192;2023-07-31T11:18:49;32.36;35.36
75457;SHT31;64036;48.266;14.192;2023-07-31T11:21:20;31.83;35.37
75457;SHT31;64036;48.266;14.192;2023-07-31T11:23:49;31.61;36.42
75457;SHT31;64036;48.266;14.192;2023-07-31T11:26:21;31.60;37.49
75457;SHT31;64036;48.266;14.192;2023-07-31T11:28:50;31.45;37.03
75457;SHT31;64036;48.266;14.192;2023-07-31T11:31:16;31.24;36.82
75457;SHT31;64036;48.266;14.192;2023-07-31T11:33:43;31.04;36.02
75457;SHT31;64036;48.266;14.192;2023-07-31T11:36:20;30.85;36.66
75457;SHT31;64036;48.266;14.192;2023-07-31T11:38:46;30.73;36.93
75457;SHT31;64036;48.266;14.192;2023-07-31T11:41:16;30.78;37.65
75457;SHT31;64036;48.266;14.192;2023-07-31T11:43:42;30.88;38.13
75457;SHT31;64036;48.266;14.192;2023-07-31T11:46:07;31.10;39.47
75457;SHT31;64036;48.266;14.192;2023-07-31T11:48:35;31.14;38.90
75457;SHT31;64036;48.266;14.192;2023-07-31T11:51:03;31.09;37.78
75457;SHT31;64036;48.266;14.192;2023-07-31T11:53:33;30.93;37.69
75457;SHT31;64036;48.266;14.192;2023-07-31T11:56:04;30.82;37.67
75457;SHT31;64036;48.266;14.192;2023-07-31T11:58:31;30.76;38.20
75457;SHT31;64036;48.266;14.192;2023-07-31T12:00:58;30.77;37.85
75457;SHT31;64036;48.266;14.192;2023-07-31T12:03:25;30.85;38.14
75457;SHT31;64036;48.266;14.192;2023-07-31T12:05:52;30.87;38.19
75457;SHT31;64036;48.266;14.192;2023-07-31T12:08:20;30.81;38.86
75457;SHT31;64036;48.266;14.192;2023-07-31T12:10:49;30.93;38.50
75457;SHT31;64036;48.266;14.192;2023-07-31T12:13:23;30.87;38.16
75457;SHT31;64036;48.266;14.192;2023-07-31T12:15:58;30.89;39.33
75457;SHT31;64036;48.266;14.192;2023-07-31T12:18:27;31.06;38.70
75457;SHT31;64036;48.266;14.192;2023-07-31T12:20:57;31.12;38.16
75457;SHT31;64036;48.266;14.192;2023-07-31T12:23:25;30.81;37.86
75457;SHT31;64036;48.266;14.192;2023-07-31T12:26:33;30.68;38.56
75457;SHT31;64036;48.266;14.192;2023-07-31T12:28:46;30.62;38.26
75457;SHT31;64036;48.266;14.192;2023-07-31T12:31:15;30.59;38.28
75457;SHT31;64036;48.266;14.192;2023-07-31T12:33:43;30.58;38.43
75457;SHT31;64036;48.266;14.192;2023-07-31T12:36:11;30.66;38.69
75457;SHT31;64036;48.266;14.192;2023-07-31T12:38:40;30.49;38.49
75457;SHT31;64036;48.266;14.192;2023-07-31T12:41:06;30.35;38.44
75457;SHT31;64036;48.266;14.192;2023-07-31T12:43:32;30.08;38.06
75457;SHT31;64036;48.266;14.192;2023-07-31T12:46:02;29.76;38.72
75457;SHT31;64036;48.266;14.192;2023-07-31T12:48:28;29.70;39.52
75457;SHT31;64036;48.266;14.192;2023-07-31T12:50:54;29.70;39.35
75457;SHT31;64036;48.266;14.192;2023-07-31T12:53:20;29.71;40.49
75457;SHT31;64036;48.266;14.192;2023-07-31T12:55:46;29.56;40.33
75457;SHT31;64036;48.266;14.192;2023-07-31T12:58:12;29.47;40.15
75457;SHT31;64036;48.266;14.192;2023-07-31T13:00:37;29.51;40.86
75457;SHT31;64036;48.266;14.192;2023-07-31T13:03:03;29.53;40.26
75457;SHT31;64036;48.266;14.192;2023-07-31T13:05:29;29.49;40.21
75457;SHT31;64036;48.266;14.192;2023-07-31T13:07:55;29.53;40.15
75457;SHT31;64036;48.266;14.192;2023-07-31T13:10:22;29.60;40.86
75457;SHT31;64036;48.266;14.192;2023-07-31T13:12:48;29.61;39.65
75457;SHT31;64036;48.266;14.192;2023-07-31T13:15:14;29.61;41.17
75457;SHT31;64036;48.266;14.192;2023-07-31T13:17:40;29.73;41.56
75457;SHT31;64036;48.266;14.192;2023-07-31T13:20:06;29.71;40.49
75457;SHT31;64036;48.266;14.192;2023-07-31T13:22:33;29.73;40.88
75457;SHT31;64036;48.266;14.192;2023-07-31T13:24:58;29.74;41.75
75457;SHT31;64036;48.266;14.192;2023-07-31T13:27:24;29.68;42.09
75457;SHT31;64036;48.266;14.192;2023-07-31T13:29:50;29.60;41.21
75457;SHT31;64036;48.266;14.192;2023-07-31T13:32:17;29.46;42.37
75457;SHT31;64036;48.266;14.192;2023-07-31T13:34:47;29.40;42.66
75457;SHT31;64036;48.266;14.192;2023-07-31T13:37:14;29.37;42.32
75457;SHT31;64036;48.266;14.192;2023-07-31T13:39:40;29.36;42.39
75457;SHT31;64036;48.266;14.192;2023-07-31T13:42:07;29.28;41.73
75457;SHT31;64036;48.266;14.192;2023-07-31T13:44:34;29.19;41.66
75457;SHT31;64036;48.266;14.192;2023-07-31T13:47:00;29.14;42.52
75457;SHT31;64036;48.266;14.192;2023-07-31T13:49:27;28.99;42.05
75457;SHT31;64036;48.266;14.192;2023-07-31T13:51:53;28.84;42.24
75457;SHT31;64036;48.266;14.192;2023-07-31T13:54:19;28.79;42.58
75457;SHT31;64036;48.266;14.192;2023-07-31T13:56:44;28.70;42.50
75457;SHT31;64036;48.266;14.192;2023-07-31T13:59:10;28.63;42.62
75457;SHT31;64036;48.266;14.192;2023-07-31T14:01:36;28.53;42.40
75457;SHT31;64036;48.266;14.192;2023-07-31T14:04:03;28.36;42.88
75457;SHT31;64036;48.266;14.192;2023-07-31T14:06:28;27.97;42.50
75457;SHT31;64036;48.266;14.192;2023-07-31T14:08:54;27.66;43.00
75457;SHT31;64036;48.266;14.192;2023-07-31T14:11:20;27.43;42.64
75457;SHT31;64036;48.266;14.192;2023-07-31T14:13:47;27.32;43.90
75457;SHT31;64036;48.266;14.192;2023-07-31T14:16:13;27.33;44.59
75457;SHT31;64036;48.266;14.192;2023-07-31T14:18:39;27.35;44.12
75457;SHT31;64036;48.266;14.192;2023-07-31T14:21:04;27.38;44.04
75457;SHT31;64036;48.266;14.192;2023-07-31T14:23:30;27.45;44.44
75457;SHT31;64036;48.266;14.192;2023-07-31T14:25:56;27.50;44.39
75457;SHT31;64036;48.266;14.192;2023-07-31T14:28:21;27.47;44.52
75457;SHT31;64036;48.266;14.192;2023-07-31T14:30:47;27.41;43.53
75457;SHT31;64036;48.266;14.192;2023-07-31T14:33:13;27.29;42.89
75457;SHT31;64036;48.266;14.192;2023-07-31T14:35:38;27.21;43.03
75457;SHT31;64036;48.266;14.192;2023-07-31T14:38:04;27.15;43.28
75457;SHT31;64036;48.266;14.192;2023-07-31T14:40:30;27.17;43.89
75457;SHT31;64036;48.266;14.192;2023-07-31T14:42:55;27.19;43.74
75457;SHT31;64036;48.266;14.192;2023-07-31T14:45:21;27.19;43.68
75457;SHT31;64036;48.266;14.192;2023-07-31T14:47:47;27.21;44.07
75457;SHT31;64036;48.266;14.192;2023-07-31T14:50:12;27.24;43.78
75457;SHT31;64036;48.266;14.192;2023-07-31T14:52:38;27.25;43.72
75457;SHT31;64036;48.266;14.192;2023-07-31T14:55:04;27.22;44.75
75457;SHT31;64036;48.266;14.192;2023-07-31T14:57:30;27.16;45.18
75457;SHT31;64036;48.266;14.192;2023-07-31T14:59:56;27.10;44.54
75457;SHT31;64036;48.266;14.192;2023-07-31T15:02:22;27.08;44.31
75457;SHT31;64036;48.266;14.192;2023-07-31T15:04:47;27.04;43.79
75457;SHT31;64036;48.266;14.192;2023-07-31T15:07:13;27.02;44.09
75457;SHT31;64036;48.266;14.192;2023-07-31T15:09:39;27.02;44.43
75457;SHT31;64036;48.266;14.192;2023-07-31T15:12:05;27.05;44.72
75457;SHT31;64036;48.266;14.192;2023-07-31T15:14:31;27.06;44.39
75457;SHT31;64036;48.266;14.192;2023-07-31T15:16:57;27.04;44.60
75457;SHT31;64036;48.266;14.192;2023-07-31T15:19:23;27.01;45.00
75457;SHT31;64036;48.266;14.192;2023-07-31T15:21:49;26.96;44.89
75457;SHT31;64036;48.266;14.192;2023-07-31T15:24:15;26.93;45.27
75457;SHT31;64036;48.266;14.192;2023-07-31T15:26:40;26.93;44.92